createdAt,value
2018-12-30T00:01:01.046Z,97.60
2018-12-30T00:03:29.509Z,97.40
2018-12-30T00:05:58.667Z,97.20
2018-12-30T00:08:27.447Z,97.20
2018-12-30T00:10:56.135Z,96.50
2018-12-30T00:13:25.247Z,96.80
2018-12-30T00:15:54.035Z,96.80
2018-12-30T00:18:22.438Z,96.60
2018-12-30T00:20:50.839Z,96.50
2018-12-30T00:23:19.510Z,96.80
2018-12-30T00:25:47.921Z,96.90
2018-12-30T00:28:16.637Z,97.40
2018-12-30T00:30:45.037Z,97.10
2018-12-30T00:33:13.707Z,97.50
2018-12-30T00:35:42.117Z,97.10
2018-12-30T00:38:10.518Z,97.50
2018-12-30T00:40:39.259Z,97.60
2018-12-30T00:43:07.951Z,97.60
2018-12-30T00:45:36.417Z,97.50
2018-12-30T00:48:05.131Z,97.50
2018-12-30T00:50:34.027Z,98.10
2018-12-30T00:53:02.497Z,98.10
2018-12-30T00:55:30.898Z,98.20
2018-12-30T00:57:59.550Z,98.20
2018-12-30T01:00:27.940Z,98.30
2018-12-30T01:02:56.619Z,98.30
2018-12-30T01:05:25.290Z,98.60
2018-12-30T01:07:53.990Z,98.90
2018-12-30T01:10:22.391Z,99.50
2018-12-30T01:12:50.872Z,99.50
2018-12-30T01:15:19.253Z,99.50
2018-12-30T01:17:47.653Z,99.90
2018-12-30T01:20:16.335Z,99.90
2018-12-30T01:22:45.186Z,99.90
2018-12-30T01:25:13.877Z,99.80
2018-12-30T01:27:42.273Z,99.80
2018-12-30T01:30:10.675Z,99.70
2018-12-30T01:32:39.083Z,99.90
2018-12-30T01:35:07.481Z,99.90
2018-12-30T01:37:36.176Z,99.90
2018-12-30T01:40:05.586Z,99.90
2018-12-30T01:42:34.264Z,99.90
2018-12-30T01:45:02.658Z,99.90
2018-12-30T01:47:31.072Z,99.90
2018-12-30T01:49:59.533Z,99.90
2018-12-30T01:52:28.203Z,99.90
2018-12-30T01:54:56.987Z,99.90
2018-12-30T01:57:25.665Z,99.90
2018-12-30T01:59:54.761Z,99.90
2018-12-30T02:02:23.161Z,99.90
2018-12-30T02:04:51.558Z,99.90
2018-12-30T02:07:20.215Z,99.90
2018-12-30T02:09:48.610Z,99.90
2018-12-30T02:12:17.285Z,99.90
2018-12-30T02:14:45.968Z,99.90
2018-12-30T02:17:14.661Z,99.90
2018-12-30T02:19:43.142Z,99.90
2018-12-30T02:22:11.526Z,99.90
2018-12-30T02:24:39.926Z,99.90
2018-12-30T02:27:08.575Z,99.90
2018-12-30T02:29:37.262Z,99.90
2018-12-30T02:32:05.660Z,99.90
2018-12-30T02:34:34.327Z,99.90
2018-12-30T02:37:02.722Z,99.90
2018-12-30T02:39:31.145Z,99.90
2018-12-30T02:41:59.559Z,99.90
2018-12-30T02:44:28.260Z,99.90
2018-12-30T02:46:56.940Z,99.90
2018-12-30T02:49:25.350Z,99.90
2018-12-30T02:51:53.744Z,99.90
2018-12-30T02:54:22.159Z,99.90
2018-12-30T02:56:50.872Z,99.90
2018-12-30T02:59:19.555Z,99.90
2018-12-30T03:01:47.952Z,99.90
2018-12-30T03:04:16.648Z,99.90
2018-12-30T03:06:45.038Z,99.90
2018-12-30T03:09:13.434Z,99.90
2018-12-30T03:11:41.829Z,99.90
2018-12-30T03:14:10.546Z,99.90
2018-12-30T03:16:38.949Z,99.90
2018-12-30T03:19:07.344Z,99.90
2018-12-30T03:21:35.989Z,99.90
2018-12-30T03:24:04.691Z,99.90
2018-12-30T03:26:33.084Z,99.90
2018-12-30T03:29:01.874Z,99.90
2018-12-30T03:31:30.630Z,99.90
2018-12-30T03:33:59.043Z,99.90
2018-12-30T03:36:27.440Z,99.90
2018-12-30T03:38:55.844Z,99.90
2018-12-30T03:41:24.571Z,99.90
2018-12-30T03:43:53.049Z,99.90
2018-12-30T03:46:21.725Z,99.80
2018-12-30T03:48:50.458Z,99.90
2018-12-30T03:51:18.854Z,99.60
2018-12-30T03:53:47.497Z,99.30
2018-12-30T03:56:16.170Z,99.30
2018-12-30T03:58:44.563Z,99.10
2018-12-30T04:01:12.972Z,99.40
2018-12-30T04:03:41.372Z,99.50
2018-12-30T04:06:09.782Z,99.40
2018-12-30T04:08:38.494Z,99.40
2018-12-30T04:11:06.902Z,99.60
2018-12-30T04:13:35.637Z,99.40
2018-12-30T04:16:04.336Z,99.00
2018-12-30T04:18:33.016Z,99.00
2018-12-30T04:21:01.704Z,98.70
2018-12-30T04:23:30.386Z,99.00
2018-12-30T04:25:59.074Z,99.00
2018-12-30T04:28:27.476Z,98.90
2018-12-30T04:30:55.877Z,99.30
2018-12-30T04:33:24.542Z,99.50
2018-12-30T04:35:53.206Z,99.10
2018-12-30T04:38:21.611Z,99.30
2018-12-30T04:40:50.023Z,99.40
2018-12-30T04:43:19.653Z,99.20
2018-12-30T04:45:48.311Z,99.10
2018-12-30T04:48:16.939Z,98.50
2018-12-30T04:50:45.346Z,98.60
2018-12-30T04:53:13.786Z,98.60
2018-12-30T04:55:42.189Z,98.80
2018-12-30T04:58:10.872Z,98.60
2018-12-30T05:00:39.274Z,98.60
2018-12-30T05:03:07.674Z,98.90
2018-12-30T05:05:36.424Z,99.00
2018-12-30T05:08:05.111Z,98.70
2018-12-30T05:10:33.567Z,99.00
2018-12-30T05:13:01.969Z,99.10
2018-12-30T05:15:30.658Z,99.40
2018-12-30T05:17:59.344Z,99.30
2018-12-30T05:20:28.032Z,99.10
2018-12-30T05:22:56.452Z,99.40
2018-12-30T05:25:24.849Z,99.50
2018-12-30T05:27:53.578Z,99.40
2018-12-30T05:30:21.965Z,99.10
2018-12-30T05:32:50.639Z,99.10
2018-12-30T05:35:19.033Z,99.10
2018-12-30T05:37:47.712Z,99.40
2018-12-30T05:40:16.395Z,99.50
2018-12-30T05:42:44.791Z,99.80
2018-12-30T05:45:13.187Z,99.90
2018-12-30T05:47:41.939Z,99.50
2018-12-30T05:50:10.832Z,99.50
2018-12-30T05:52:42.066Z,99.60
2018-12-30T05:55:09.378Z,99.70
2018-12-30T05:57:37.786Z,99.70
2018-12-30T06:00:08.120Z,99.80
2018-12-30T06:02:36.827Z,99.90
2018-12-30T06:05:05.519Z,99.90
2018-12-30T06:07:34.198Z,99.40
2018-12-30T06:10:02.605Z,99.60
2018-12-30T06:12:31.257Z,99.60
2018-12-30T06:14:59.658Z,99.60
2018-12-30T06:17:28.330Z,99.80
2018-12-30T06:19:56.804Z,94.70
2018-12-30T06:22:25.222Z,95.70
2018-12-30T06:24:53.878Z,97.20
2018-12-30T06:27:22.291Z,98.20
2018-12-30T06:29:50.695Z,98.70
2018-12-30T06:32:19.422Z,98.90
2018-12-30T06:34:47.827Z,99.10
2018-12-30T06:37:16.487Z,99.60
2018-12-30T06:39:44.891Z,99.90
2018-12-30T06:42:13.302Z,99.90
2018-12-30T06:44:41.710Z,99.90
2018-12-30T06:47:10.410Z,99.90
2018-12-30T06:49:39.049Z,99.90
2018-12-30T06:52:07.787Z,99.90
2018-12-30T06:54:36.197Z,99.90
2018-12-30T06:57:04.860Z,99.90
2018-12-30T06:59:33.536Z,99.90
2018-12-30T07:02:02.164Z,99.90
2018-12-30T07:04:30.567Z,98.70
2018-12-30T07:06:59.208Z,98.10
2018-12-30T07:09:27.617Z,98.40
2018-12-30T07:11:56.005Z,99.00
2018-12-30T07:14:24.402Z,98.80
2018-12-30T07:16:52.794Z,99.70
2018-12-30T07:19:21.207Z,99.90
2018-12-30T07:21:49.878Z,99.90
2018-12-30T07:24:18.284Z,99.90
2018-12-30T07:26:46.946Z,99.90
2018-12-30T07:29:15.361Z,99.90
2018-12-30T07:31:43.758Z,99.90
2018-12-30T07:34:12.184Z,99.90
2018-12-30T07:36:40.823Z,99.90
2018-12-30T07:39:09.226Z,99.90
2018-12-30T07:41:37.626Z,99.90
2018-12-30T07:44:06.024Z,99.90
2018-12-30T07:46:34.422Z,99.90
2018-12-30T07:49:02.826Z,99.90
2018-12-30T07:51:31.559Z,99.90
2018-12-30T07:54:00.237Z,99.90
2018-12-30T07:56:29.426Z,99.90
2018-12-30T07:58:57.838Z,99.90
2018-12-30T08:01:26.238Z,99.90
2018-12-30T08:03:54.665Z,99.90
2018-12-30T08:06:23.063Z,99.90
2018-12-30T08:08:51.473Z,99.90
2018-12-30T08:11:20.136Z,99.90
2018-12-30T08:13:48.550Z,99.90
2018-12-30T08:16:16.946Z,99.90
2018-12-30T08:18:45.679Z,99.90
2018-12-30T08:21:14.065Z,99.90
2018-12-30T08:23:42.473Z,99.90
2018-12-30T08:26:10.879Z,99.90
2018-12-30T08:28:39.288Z,99.90
2018-12-30T08:31:07.747Z,99.90
2018-12-30T08:33:36.151Z,99.90
2018-12-30T08:36:04.847Z,99.90
2018-12-30T08:38:33.238Z,99.90
2018-12-30T08:41:02.539Z,99.90
2018-12-30T08:43:30.934Z,99.90
2018-12-30T08:45:59.334Z,99.90
2018-12-30T08:48:28.067Z,99.90
2018-12-30T08:50:56.478Z,99.90
2018-12-30T08:53:29.309Z,99.90
2018-12-30T08:55:55.267Z,99.90
2018-12-30T08:58:23.745Z,99.90
2018-12-30T09:00:52.151Z,99.90
2018-12-30T09:03:20.533Z,99.90
2018-12-30T09:05:48.938Z,99.90
2018-12-30T09:08:17.334Z,99.90
2018-12-30T09:10:46.145Z,99.90
2018-12-30T09:13:14.864Z,99.90
2018-12-30T09:15:43.270Z,99.90
2018-12-30T09:18:11.661Z,99.90
2018-12-30T09:20:40.379Z,99.90
2018-12-30T09:23:08.781Z,99.90
2018-12-30T09:25:37.439Z,99.90
2018-12-30T09:28:05.838Z,99.90
2018-12-30T09:30:34.237Z,99.90
2018-12-30T09:33:02.645Z,99.90
2018-12-30T09:35:31.041Z,99.90
2018-12-30T09:37:59.447Z,99.90
2018-12-30T09:40:28.123Z,99.90
2018-12-30T09:42:56.825Z,99.90
2018-12-30T09:45:25.235Z,99.90
2018-12-30T09:47:53.650Z,99.90
2018-12-30T09:50:22.367Z,99.90
2018-12-30T09:52:50.767Z,99.90
2018-12-30T09:55:19.157Z,99.70
2018-12-30T09:57:47.557Z,99.90
2018-12-30T10:00:15.949Z,98.00
2018-12-30T10:02:44.363Z,92.20
2018-12-30T10:05:12.753Z,93.50
2018-12-30T10:07:41.170Z,94.80
2018-12-30T10:10:09.913Z,95.10
2018-12-30T10:12:38.327Z,95.20
2018-12-30T10:15:10.026Z,96.50
2018-12-30T10:17:37.304Z,97.60
2018-12-30T10:20:07.554Z,98.50
2018-12-30T10:22:35.953Z,98.40
2018-12-30T10:25:04.895Z,97.90
2018-12-30T10:27:33.305Z,98.40
2018-12-30T10:30:01.959Z,98.80
2018-12-30T10:32:30.361Z,97.90
2018-12-30T10:34:58.766Z,97.90
2018-12-30T10:37:27.507Z,98.30
2018-12-30T10:39:56.186Z,98.30
2018-12-30T10:42:24.888Z,98.60
2018-12-30T10:44:53.569Z,98.60
2018-12-30T10:47:21.974Z,98.90
2018-12-30T10:49:50.635Z,98.30
2018-12-30T10:52:19.319Z,98.60
2018-12-30T10:54:47.728Z,98.60
2018-12-30T10:57:16.136Z,99.20
2018-12-30T10:59:44.542Z,99.10
2018-12-30T11:02:12.950Z,99.20
2018-12-30T11:04:41.350Z,99.40
2018-12-30T11:07:09.843Z,99.10
2018-12-30T11:09:38.587Z,99.00
2018-12-30T11:12:07.044Z,99.00
2018-12-30T11:14:35.435Z,98.90
2018-12-30T11:17:04.140Z,99.30
2018-12-30T11:19:32.931Z,99.80
2018-12-30T11:22:01.607Z,99.70
2018-12-30T11:24:30.009Z,99.80
2018-12-30T11:26:58.680Z,99.50
2018-12-30T11:29:27.086Z,99.30
2018-12-30T11:31:55.723Z,99.40
2018-12-30T11:34:24.138Z,99.50
2018-12-30T11:36:52.538Z,99.60
2018-12-30T11:39:21.287Z,99.90
2018-12-30T11:41:49.997Z,99.90
2018-12-30T11:44:18.780Z,99.90
2018-12-30T11:46:47.247Z,99.90
2018-12-30T11:49:16.058Z,99.90
2018-12-30T11:51:44.455Z,99.70
2018-12-30T11:54:16.621Z,99.20
2018-12-30T11:56:42.981Z,99.20
2018-12-30T11:59:11.386Z,99.40
2018-12-30T12:01:40.075Z,99.30
2018-12-30T12:04:08.482Z,99.50
2018-12-30T12:06:36.883Z,99.70
2018-12-30T12:09:06.961Z,99.70
2018-12-30T12:11:35.757Z,99.90
2018-12-30T12:14:04.167Z,99.90
2018-12-30T12:16:32.570Z,99.60
2018-12-30T12:19:00.978Z,99.90
2018-12-30T12:21:29.379Z,99.60
2018-12-30T12:23:57.781Z,99.40
2018-12-30T12:26:26.427Z,97.00
2018-12-30T12:28:54.830Z,96.20
2018-12-30T12:31:23.239Z,97.40
2018-12-30T12:33:51.641Z,97.80
2018-12-30T12:36:20.051Z,97.90
2018-12-30T12:38:48.459Z,98.70
2018-12-30T12:41:16.862Z,99.10
2018-12-30T12:43:45.262Z,99.10
2018-12-30T12:46:13.715Z,99.50
2018-12-30T12:48:42.114Z,99.90
2018-12-30T12:51:10.514Z,99.80
2018-12-30T12:53:39.319Z,99.50
2018-12-30T12:56:08.033Z,99.70
2018-12-30T12:58:36.806Z,99.90
2018-12-30T13:01:05.195Z,99.90
2018-12-30T13:03:33.593Z,99.90
2018-12-30T13:06:02.002Z,99.40
2018-12-30T13:08:30.725Z,99.50
2018-12-30T13:10:59.529Z,99.20
2018-12-30T13:13:28.264Z,98.90
2018-12-30T13:16:03.347Z,98.80
2018-12-30T13:18:27.097Z,96.60
2018-12-30T13:20:55.505Z,95.00
2018-12-30T13:23:24.170Z,95.90
2018-12-30T13:25:52.574Z,96.50
2018-12-30T13:28:20.987Z,99.90
2018-12-30T13:30:49.389Z,96.70
2018-12-30T13:33:17.805Z,97.30
2018-12-30T13:35:46.274Z,98.20
2018-12-30T13:38:14.690Z,98.40
2018-12-30T13:40:43.094Z,99.50
2018-12-30T13:43:11.499Z,99.40
2018-12-30T13:45:40.304Z,99.60
2018-12-30T13:48:08.794Z,99.50
2018-12-30T13:50:37.471Z,99.90
2018-12-30T13:53:05.871Z,99.90
2018-12-30T13:55:34.531Z,99.90
2018-12-30T13:58:02.993Z,99.90
2018-12-30T14:00:31.397Z,99.80
2018-12-30T14:03:00.083Z,99.90
2018-12-30T14:05:28.770Z,99.90
2018-12-30T14:07:57.455Z,99.40
2018-12-30T14:10:25.864Z,99.70
2018-12-30T14:12:54.522Z,99.70
2018-12-30T14:15:22.941Z,99.90
2018-12-30T14:17:51.340Z,99.70
2018-12-30T14:20:19.810Z,99.90
2018-12-30T14:22:48.618Z,99.90
2018-12-30T14:25:17.339Z,99.90
2018-12-30T14:27:46.022Z,99.90
2018-12-30T14:30:14.710Z,99.60
2018-12-30T14:32:43.395Z,99.70
2018-12-30T14:35:11.789Z,99.70
2018-12-30T14:37:40.515Z,99.70
2018-12-30T14:40:09.027Z,99.50
2018-12-30T14:42:37.754Z,99.50
2018-12-30T14:45:07.868Z,99.60
2018-12-30T14:47:36.342Z,99.90
2018-12-30T14:50:07.800Z,99.80
2018-12-30T14:52:36.570Z,99.90
2018-12-30T14:55:05.422Z,99.90
2018-12-30T14:57:33.841Z,99.90
2018-12-30T15:00:02.247Z,99.90
2018-12-30T15:02:30.723Z,99.90
2018-12-30T15:04:59.164Z,99.90
2018-12-30T15:07:27.574Z,99.90
2018-12-30T15:09:55.980Z,99.90
2018-12-30T15:12:24.387Z,99.90
2018-12-30T15:14:52.874Z,99.90
2018-12-30T15:17:21.277Z,99.90
2018-12-30T15:19:50.074Z,99.90
2018-12-30T15:22:18.607Z,99.90
2018-12-30T15:24:47.357Z,99.90
2018-12-30T15:27:15.759Z,99.90
2018-12-30T15:29:44.416Z,99.90
2018-12-30T15:32:12.831Z,99.90
2018-12-30T15:34:41.226Z,99.90
2018-12-30T15:37:09.639Z,99.90
2018-12-30T15:39:38.334Z,99.90
2018-12-30T15:42:07.025Z,99.90
2018-12-30T15:44:35.429Z,99.90
2018-12-30T15:47:04.097Z,99.90
2018-12-30T15:49:32.781Z,99.90
2018-12-30T15:52:01.544Z,99.90
2018-12-30T15:54:30.299Z,99.90
2018-12-30T15:56:58.935Z,99.90
2018-12-30T15:59:27.343Z,99.90
2018-12-30T16:01:56.004Z,99.90
2018-12-30T16:04:24.410Z,99.90
2018-12-30T16:06:52.815Z,99.90
2018-12-30T16:09:21.208Z,99.90
2018-12-30T16:11:49.616Z,99.90
2018-12-30T16:14:18.024Z,99.90
2018-12-30T16:16:46.430Z,99.50
2018-12-30T16:19:14.839Z,99.40
2018-12-30T16:21:43.560Z,99.90
2018-12-30T16:24:12.207Z,96.30
2018-12-30T16:26:40.618Z,93.30
2018-12-30T16:29:09.309Z,93.90
2018-12-30T16:31:38.047Z,95.20
2018-12-30T16:34:06.460Z,95.90
2018-12-30T16:36:34.860Z,96.50
2018-12-30T16:39:03.833Z,96.50
2018-12-30T16:41:32.239Z,96.70
2018-12-30T16:44:00.646Z,96.70
2018-12-30T16:46:29.037Z,97.10
2018-12-30T16:48:57.444Z,97.70
2018-12-30T16:51:25.837Z,97.90
2018-12-30T16:53:54.354Z,98.70
2018-12-30T16:56:23.016Z,99.30
2018-12-30T16:58:51.426Z,99.80
2018-12-30T17:01:19.828Z,99.90
2018-12-30T17:03:48.243Z,99.90
2018-12-30T17:06:16.725Z,99.90
2018-12-30T17:08:45.147Z,99.90
2018-12-30T17:11:13.794Z,99.90
2018-12-30T17:13:42.206Z,99.90
2018-12-30T17:16:10.867Z,99.90
2018-12-30T17:18:39.551Z,99.90
2018-12-30T17:21:08.026Z,99.90
2018-12-30T17:23:36.413Z,99.90
2018-12-30T17:26:04.831Z,99.90
2018-12-30T17:28:33.230Z,99.90
2018-12-30T17:31:01.967Z,99.90
2018-12-30T17:33:30.365Z,99.90
2018-12-30T17:35:58.774Z,99.90
2018-12-30T17:38:27.503Z,99.90
2018-12-30T17:41:01.502Z,99.90
2018-12-30T17:43:26.519Z,99.90
2018-12-30T17:45:54.922Z,99.90
2018-12-30T17:48:23.596Z,99.90
2018-12-30T17:50:51.997Z,99.90
2018-12-30T17:53:20.441Z,99.90
2018-12-30T17:55:50.906Z,99.90
2018-12-30T17:58:19.252Z,99.90
2018-12-30T18:00:47.903Z,99.90
2018-12-30T18:03:16.619Z,99.90
2018-12-30T18:05:45.029Z,99.90
2018-12-30T18:08:13.422Z,99.90
2018-12-30T18:10:42.171Z,99.90
2018-12-30T18:13:10.857Z,99.90
2018-12-30T18:15:39.342Z,99.90
2018-12-30T18:18:08.026Z,99.90
2018-12-30T18:20:36.447Z,99.90
2018-12-30T18:23:04.852Z,99.90
2018-12-30T18:25:33.259Z,99.90
2018-12-30T18:28:01.653Z,99.90
2018-12-30T18:30:30.067Z,99.90
2018-12-30T18:32:58.469Z,99.90
2018-12-30T18:35:26.898Z,99.90
2018-12-30T18:37:55.306Z,99.90
2018-12-30T18:40:31.675Z,99.90
2018-12-30T18:43:00.426Z,99.90
2018-12-30T18:45:29.125Z,99.90
2018-12-30T18:47:57.795Z,99.90
2018-12-30T18:50:26.258Z,99.90
2018-12-30T18:52:54.665Z,99.90
2018-12-30T18:55:23.375Z,99.90
2018-12-30T18:57:51.890Z,99.90
2018-12-30T19:00:20.510Z,99.90
2018-12-30T19:02:48.914Z,99.90
2018-12-30T19:05:17.327Z,99.90
2018-12-30T19:07:45.820Z,96.90
2018-12-30T19:10:14.547Z,94.60
2018-12-30T19:12:43.230Z,96.50
2018-12-30T19:15:11.634Z,98.60
2018-12-30T19:17:40.119Z,99.90
2018-12-30T19:20:08.513Z,99.90
2018-12-30T19:22:37.253Z,99.90
2018-12-30T19:25:06.031Z,99.90
2018-12-30T19:27:34.727Z,99.90
2018-12-30T19:30:03.289Z,99.90
2018-12-30T19:32:31.995Z,99.90
2018-12-30T19:35:00.399Z,99.90
2018-12-30T19:37:29.070Z,99.90
2018-12-30T19:39:57.473Z,99.90
2018-12-30T19:42:26.121Z,99.90
2018-12-30T19:44:54.820Z,99.90
2018-12-30T19:47:23.239Z,99.90
2018-12-30T19:49:51.881Z,99.90
2018-12-30T19:52:20.564Z,99.90
2018-12-30T19:54:49.079Z,99.90
2018-12-30T19:57:17.734Z,99.90
2018-12-30T19:59:46.144Z,99.90
2018-12-30T20:02:14.561Z,99.90
2018-12-30T20:04:43.292Z,99.90
2018-12-30T20:07:11.699Z,99.90
2018-12-30T20:09:40.357Z,99.90
2018-12-30T20:12:09.035Z,99.90
2018-12-30T20:14:37.723Z,99.90
2018-12-30T20:17:06.126Z,99.90
2018-12-30T20:19:34.798Z,99.90
2018-12-30T20:22:03.190Z,99.90
2018-12-30T20:24:31.597Z,99.90
2018-12-30T20:26:59.999Z,99.90
2018-12-30T20:29:28.454Z,99.90
2018-12-30T20:31:57.090Z,99.90
2018-12-30T20:34:26.727Z,99.90
2018-12-30T20:36:55.273Z,99.90
2018-12-30T20:39:23.971Z,99.90
2018-12-30T20:41:52.373Z,99.90
2018-12-30T20:44:20.782Z,99.90
2018-12-30T20:46:49.182Z,99.90
2018-12-30T20:49:17.897Z,99.90
2018-12-30T20:51:46.315Z,99.90
2018-12-30T20:54:14.731Z,99.90
2018-12-30T20:56:43.141Z,99.90
2018-12-30T20:59:11.827Z,99.90
2018-12-30T21:01:40.234Z,99.90
2018-12-30T21:04:08.890Z,99.90
2018-12-30T21:06:37.295Z,99.90
2018-12-30T21:09:06.333Z,99.90
2018-12-30T21:11:34.744Z,99.90
2018-12-30T21:14:03.439Z,99.90
2018-12-30T21:16:31.830Z,99.90
2018-12-30T21:19:00.237Z,99.90
2018-12-30T21:21:28.979Z,99.90
2018-12-30T21:23:57.394Z,99.90
2018-12-30T21:26:26.038Z,99.90
2018-12-30T21:28:54.457Z,99.90
2018-12-30T21:31:22.850Z,99.90
2018-12-30T21:33:51.399Z,99.90
2018-12-30T21:36:19.837Z,99.90
2018-12-30T21:38:48.558Z,99.90
2018-12-30T21:41:16.982Z,99.90
2018-12-30T21:43:45.374Z,99.90
2018-12-30T21:46:13.783Z,99.90
2018-12-30T21:48:42.301Z,99.90
2018-12-30T21:51:10.718Z,99.90
2018-12-30T21:53:39.451Z,99.90
2018-12-30T21:56:07.864Z,99.90
2018-12-30T21:58:36.511Z,99.90
2018-12-30T22:01:04.916Z,99.90
2018-12-30T22:03:33.328Z,99.90
2018-12-30T22:06:01.739Z,99.90
2018-12-30T22:08:30.158Z,99.90
2018-12-30T22:10:58.819Z,99.90
2018-12-30T22:13:27.504Z,99.90
2018-12-30T22:15:56.280Z,99.90
2018-12-30T22:18:24.989Z,99.90
2018-12-30T22:20:53.407Z,99.90
2018-12-30T22:23:21.890Z,99.90
2018-12-30T22:25:50.307Z,99.90
2018-12-30T22:28:19.001Z,99.90
2018-12-30T22:30:47.410Z,99.90
2018-12-30T22:33:15.816Z,99.90
2018-12-30T22:35:44.555Z,99.90
2018-12-30T22:38:12.960Z,99.90
2018-12-30T22:40:41.374Z,99.90
2018-12-30T22:43:10.103Z,99.90
2018-12-30T22:45:38.514Z,99.90
2018-12-30T22:48:06.918Z,99.90
2018-12-30T22:50:35.321Z,99.90
2018-12-30T22:53:03.736Z,99.90
2018-12-30T22:55:32.150Z,99.90
2018-12-30T22:58:00.909Z,99.90
2018-12-30T23:00:34.487Z,99.90
2018-12-30T23:03:02.963Z,99.90
2018-12-30T23:05:31.491Z,99.90
2018-12-30T23:07:59.889Z,99.90
2018-12-30T23:10:28.624Z,99.90
2018-12-30T23:12:59.762Z,99.90
2018-12-30T23:15:28.163Z,99.90
2018-12-30T23:17:56.831Z,99.90
2018-12-30T23:20:25.518Z,99.90
2018-12-30T23:22:54.011Z,99.90
2018-12-30T23:25:22.646Z,99.90
2018-12-30T23:27:51.058Z,99.90
2018-12-30T23:30:19.752Z,99.90
2018-12-30T23:32:48.168Z,99.90
2018-12-30T23:35:16.818Z,99.90
2018-12-30T23:37:45.510Z,99.90
2018-12-30T23:40:14.192Z,99.90
2018-12-30T23:42:42.603Z,99.90
2018-12-30T23:45:11.262Z,99.90
2018-12-30T23:47:39.943Z,99.90
2018-12-30T23:50:08.629Z,99.90
2018-12-30T23:52:37.044Z,99.90
2018-12-30T23:55:05.886Z,99.90
2018-12-30T23:57:34.298Z,99.90
